createdAt,value
2019-05-16T00:00:19.114Z,61.02
2019-05-16T00:01:19.339Z,61.46
2019-05-16T00:02:18.619Z,61.13
2019-05-16T00:03:18.724Z,60.72
2019-05-16T00:04:18.288Z,60.75
2019-05-16T00:05:18.770Z,60.72
2019-05-16T00:06:19.010Z,61.16
2019-05-16T00:07:19.206Z,61.13
2019-05-16T00:08:18.964Z,61.13
2019-05-16T00:09:18.377Z,60.07
2019-05-16T00:10:20.003Z,60.25
2019-05-16T00:11:19.520Z,60.07
2019-05-16T00:12:18.744Z,60.72
2019-05-16T00:13:18.912Z,60.92
2019-05-16T00:14:19.023Z,61.44
2019-05-16T00:15:19.183Z,61.13
2019-05-16T00:16:19.321Z,61.85
2019-05-16T00:17:19.473Z,61.95
2019-05-16T00:18:19.612Z,61.95
2019-05-16T00:19:20.502Z,61.74
2019-05-16T00:20:19.986Z,62.05
2019-05-16T00:21:21.000Z,62.26
2019-05-16T00:22:20.289Z,62.36
2019-05-16T00:23:20.995Z,62.26
2019-05-16T00:24:20.638Z,61.64
2019-05-16T00:25:20.791Z,61.98
2019-05-16T00:26:20.955Z,62.49
2019-05-16T00:27:21.161Z,62.08
2019-05-16T00:28:21.299Z,62.66
2019-05-16T00:29:22.437Z,62.66
2019-05-16T00:30:22.501Z,61.98
2019-05-16T00:31:21.869Z,62.77
2019-05-16T00:32:22.043Z,62.46
2019-05-16T00:33:22.214Z,61.95
2019-05-16T00:34:22.359Z,61.85
2019-05-16T00:35:22.491Z,60.89
2019-05-16T00:36:22.644Z,61.64
2019-05-16T00:37:23.213Z,61.92
2019-05-16T00:38:24.041Z,61.74
2019-05-16T00:39:23.187Z,61.71
2019-05-16T00:40:23.342Z,61.82
2019-05-16T00:41:23.505Z,61.61
2019-05-16T00:42:23.657Z,61.95
2019-05-16T00:43:23.843Z,61.64
2019-05-16T00:44:24.000Z,62.12
2019-05-16T00:45:24.140Z,61.71
2019-05-16T00:46:24.291Z,61.51
2019-05-16T00:47:24.473Z,61.51
2019-05-16T00:48:24.663Z,61.51
2019-05-16T00:49:24.839Z,61.10
2019-05-16T00:50:25.006Z,60.49
2019-05-16T00:51:26.001Z,61.18
2019-05-16T00:52:25.353Z,61.20
2019-05-16T00:53:26.025Z,60.46
2019-05-16T00:54:27.709Z,61.38
2019-05-16T00:55:28.413Z,60.79
2019-05-16T00:56:25.957Z,60.05
2019-05-16T00:57:28.042Z,60.38
2019-05-16T00:58:28.399Z,60.89
2019-05-16T00:59:27.655Z,61.10
2019-05-16T01:00:28.551Z,60.86
2019-05-16T01:01:28.281Z,61.30
2019-05-16T01:02:28.810Z,61.00
2019-05-16T01:03:29.070Z,60.79
2019-05-16T01:04:28.889Z,61.20
2019-05-16T01:05:28.560Z,61.18
2019-05-16T01:06:28.682Z,61.07
2019-05-16T01:07:28.934Z,60.46
2019-05-16T01:08:28.320Z,60.28
2019-05-16T01:09:29.312Z,61.18
2019-05-16T01:10:29.597Z,61.18
2019-05-16T01:11:29.620Z,61.07
2019-05-16T01:12:28.755Z,61.07
2019-05-16T01:13:28.941Z,60.05
2019-05-16T01:14:29.129Z,61.07
2019-05-16T01:15:29.316Z,59.92
2019-05-16T01:16:29.488Z,59.74
2019-05-16T01:17:29.669Z,60.46
2019-05-16T01:18:30.500Z,59.81
2019-05-16T01:19:30.060Z,59.61
2019-05-16T01:20:31.026Z,59.20
2019-05-16T01:21:31.017Z,59.53
2019-05-16T01:22:31.512Z,59.56
2019-05-16T01:23:30.894Z,60.25
2019-05-16T01:24:31.137Z,59.71
2019-05-16T01:25:31.271Z,58.28
2019-05-16T01:26:33.012Z,58.35
2019-05-16T01:27:31.632Z,58.35
2019-05-16T01:28:31.779Z,57.92
2019-05-16T01:29:31.965Z,58.04
2019-05-16T01:30:33.013Z,58.58
2019-05-16T01:31:32.242Z,58.12
2019-05-16T01:32:32.364Z,57.71
2019-05-16T01:33:32.515Z,57.74
2019-05-16T01:34:33.028Z,58.15
2019-05-16T01:35:32.945Z,58.45
2019-05-16T01:36:36.978Z,57.71
2019-05-16T01:37:34.185Z,57.64
2019-05-16T01:38:34.015Z,57.17
2019-05-16T01:39:33.645Z,57.28
2019-05-16T01:40:33.822Z,58.02
2019-05-16T01:41:34.017Z,58.45
2019-05-16T01:42:35.013Z,58.69
2019-05-16T01:43:34.376Z,59.00
2019-05-16T01:44:34.525Z,58.94
2019-05-16T01:45:35.652Z,57.48
2019-05-16T01:46:34.823Z,57.68
2019-05-16T01:47:34.989Z,57.48
2019-05-16T01:48:35.139Z,57.48
2019-05-16T01:49:35.307Z,58.12
2019-05-16T01:50:35.469Z,58.02
2019-05-16T01:51:37.826Z,59.17
2019-05-16T01:52:38.062Z,58.79
2019-05-16T01:53:35.881Z,59.74
2019-05-16T01:54:38.877Z,60.05
2019-05-16T01:55:38.111Z,60.97
2019-05-16T01:56:38.565Z,60.46
2019-05-16T01:57:39.009Z,59.61
2019-05-16T01:58:38.273Z,59.71
2019-05-16T01:59:38.147Z,59.68
2019-05-16T02:00:49.525Z,59.78
2019-05-16T02:05:53.749Z,61.04
2019-05-16T02:06:32.905Z,61.07
2019-05-16T02:07:34.283Z,60.42
2019-05-16T02:08:34.415Z,60.94
2019-05-16T02:09:34.540Z,60.25
2019-05-16T02:10:34.678Z,61.41
2019-05-16T02:11:34.830Z,61.92
2019-05-16T02:12:35.004Z,61.82
2019-05-16T02:13:35.141Z,62.43
2019-05-16T02:14:35.287Z,61.58
2019-05-16T02:15:38.117Z,61.35
2019-05-16T02:16:38.398Z,62.19
2019-05-16T02:17:38.296Z,61.79
2019-05-16T02:18:38.055Z,60.19
2019-05-16T02:19:38.367Z,58.61
2019-05-16T02:20:39.025Z,57.35
2019-05-16T02:21:38.689Z,58.27
2019-05-16T02:22:38.677Z,59.22
2019-05-16T02:23:38.237Z,58.63
2019-05-16T02:24:38.878Z,60.10
2019-05-16T02:25:40.763Z,61.07
2019-05-16T02:26:38.672Z,61.10
2019-05-16T02:27:41.109Z,62.23
2019-05-16T02:28:40.877Z,62.23
2019-05-16T02:29:40.221Z,63.28
2019-05-16T02:30:42.217Z,62.77
2019-05-16T02:31:42.200Z,63.15
2019-05-16T02:32:41.718Z,60.78
2019-05-16T02:33:40.826Z,59.86
2019-05-16T02:34:41.728Z,59.96
2019-05-16T02:35:40.646Z,60.42
2019-05-16T02:36:40.573Z,60.74
2019-05-16T02:37:42.179Z,61.55
2019-05-16T02:38:42.500Z,62.23
2019-05-16T02:39:41.124Z,61.99
2019-05-16T02:40:41.755Z,62.30
2019-05-16T02:41:42.561Z,61.35
2019-05-16T02:42:42.245Z,62.07
2019-05-16T02:43:42.178Z,61.89
2019-05-16T02:44:41.643Z,61.89
2019-05-16T02:45:41.459Z,61.99
2019-05-16T02:46:42.187Z,62.51
2019-05-16T02:47:42.357Z,62.92
2019-05-16T02:48:42.326Z,63.97
2019-05-16T02:49:42.208Z,63.87
2019-05-16T02:50:42.740Z,64.20
2019-05-16T02:51:42.490Z,64.10
2019-05-16T02:52:42.512Z,64.17
2019-05-16T02:53:42.161Z,63.56
2019-05-16T02:54:42.326Z,64.31
2019-05-16T02:55:42.502Z,64.51
2019-05-16T02:56:43.004Z,64.10
2019-05-16T02:57:42.790Z,64.20
2019-05-16T02:58:44.869Z,65.12
2019-05-16T02:59:44.989Z,64.17
2019-05-16T03:00:43.255Z,63.28
2019-05-16T03:01:43.470Z,63.25
2019-05-16T03:02:43.655Z,64.00
2019-05-16T03:03:44.308Z,63.69
2019-05-16T03:04:44.945Z,63.59
2019-05-16T03:05:44.098Z,64.00
2019-05-16T03:06:44.295Z,63.79
2019-05-16T03:07:47.091Z,63.42
2019-05-16T03:08:45.679Z,64.26
2019-05-16T03:09:44.807Z,65.06
2019-05-16T03:10:44.974Z,65.29
2019-05-16T03:11:45.164Z,64.64
2019-05-16T03:12:45.308Z,64.34
2019-05-16T03:13:45.439Z,64.75
2019-05-16T03:14:45.589Z,63.35
2019-05-16T03:15:45.738Z,63.39
2019-05-16T03:16:45.891Z,63.69
2019-05-16T03:17:46.099Z,62.80
2019-05-16T03:18:46.243Z,63.62
2019-05-16T03:19:46.411Z,63.21
2019-05-16T03:20:46.557Z,63.21
2019-05-16T03:21:46.712Z,63.93
2019-05-16T03:22:47.007Z,63.10
2019-05-16T03:23:47.069Z,63.21
2019-05-16T03:24:47.222Z,63.93
2019-05-16T03:25:50.516Z,64.26
2019-05-16T03:26:47.485Z,64.85
2019-05-16T03:27:47.623Z,64.57
2019-05-16T03:28:47.806Z,64.64
2019-05-16T03:29:50.644Z,64.85
2019-05-16T03:30:54.708Z,64.78
2019-05-16T03:31:54.253Z,64.75
2019-05-16T03:32:54.645Z,64.67
2019-05-16T03:33:58.646Z,64.67
2019-05-16T03:34:54.802Z,64.85
2019-05-16T03:35:54.815Z,63.39
2019-05-16T03:36:54.250Z,62.61
2019-05-16T03:37:56.956Z,61.79
2019-05-16T03:38:51.633Z,62.02
2019-05-16T03:39:51.411Z,62.43
2019-05-16T03:40:51.243Z,62.33
2019-05-16T03:41:51.171Z,62.66
2019-05-16T03:42:51.822Z,63.49
2019-05-16T03:43:51.542Z,63.07
2019-05-16T03:44:51.311Z,63.39
2019-05-16T03:45:52.466Z,62.02
2019-05-16T03:46:52.032Z,61.48
2019-05-16T03:47:51.419Z,61.48
2019-05-16T03:48:52.175Z,61.48
2019-05-16T03:49:52.514Z,60.94
2019-05-16T03:50:51.673Z,59.99
2019-05-16T03:51:51.832Z,58.02
2019-05-16T03:52:51.997Z,57.89
2019-05-16T03:53:52.181Z,58.40
2019-05-16T03:54:52.404Z,58.50
2019-05-16T03:55:52.598Z,58.29
2019-05-16T03:56:52.766Z,58.09
2019-05-16T03:57:52.934Z,58.20
2019-05-16T03:58:53.084Z,59.38
2019-05-16T03:59:53.259Z,59.78
2019-05-16T04:00:55.263Z,60.02
2019-05-16T04:01:53.576Z,60.81
2019-05-16T04:02:53.749Z,59.38
2019-05-16T04:03:53.901Z,60.84
2019-05-16T04:04:54.041Z,60.12
2019-05-16T04:05:54.282Z,60.56
2019-05-16T04:06:54.415Z,60.46
2019-05-16T04:08:10.362Z,60.66
2019-05-16T04:08:55.854Z,61.07
2019-05-16T04:09:55.050Z,61.07
2019-05-16T04:10:55.235Z,61.15
2019-05-16T04:11:55.359Z,60.86
2019-05-16T04:12:56.487Z,58.69
2019-05-16T04:13:55.704Z,58.58
2019-05-16T04:14:55.808Z,60.05
2019-05-16T04:15:55.955Z,59.53
2019-05-16T04:16:56.082Z,60.79
2019-05-16T04:17:56.332Z,61.10
2019-05-16T04:18:56.461Z,61.85
2019-05-16T04:19:57.508Z,60.89
2019-05-16T04:21:00.711Z,61.02
2019-05-16T04:21:57.024Z,61.98
2019-05-16T04:23:00.845Z,63.85
2019-05-16T04:24:00.985Z,63.96
2019-05-16T04:24:57.610Z,62.90
2019-05-16T04:26:00.433Z,63.44
2019-05-16T04:27:00.908Z,63.51
2019-05-16T04:28:00.879Z,61.74
2019-05-16T04:29:00.799Z,62.15
2019-05-16T04:30:01.537Z,61.44
2019-05-16T04:31:01.750Z,61.87
2019-05-16T04:32:01.470Z,63.21
2019-05-16T04:33:01.904Z,62.90
2019-05-16T04:34:01.351Z,62.39
2019-05-16T04:35:02.489Z,62.39
2019-05-16T04:36:01.657Z,62.36
2019-05-16T04:37:01.153Z,62.56
2019-05-16T04:38:02.004Z,62.15
2019-05-16T04:39:01.898Z,61.74
2019-05-16T04:40:01.866Z,62.59
2019-05-16T04:41:01.739Z,62.90
2019-05-16T04:42:01.690Z,62.73
2019-05-16T04:43:02.521Z,62.41
2019-05-16T04:44:04.518Z,62.73
2019-05-16T04:45:02.464Z,62.49
2019-05-16T04:46:01.823Z,62.93
2019-05-16T04:47:02.042Z,62.59
2019-05-16T04:48:02.507Z,61.77
2019-05-16T04:49:03.154Z,61.44
2019-05-16T04:50:02.269Z,60.61
2019-05-16T04:51:02.440Z,60.85
2019-05-16T04:52:02.630Z,61.46
2019-05-16T04:53:02.762Z,62.21
2019-05-16T04:54:06.812Z,61.70
2019-05-16T04:55:03.056Z,62.49
2019-05-16T04:56:04.019Z,62.70
2019-05-16T04:57:03.417Z,62.08
2019-05-16T04:58:03.568Z,61.85
2019-05-16T04:59:03.728Z,60.82
2019-05-16T05:00:03.878Z,60.54
2019-05-16T05:01:04.007Z,61.67
2019-05-16T05:02:05.010Z,61.87
2019-05-16T05:03:04.383Z,62.18
2019-05-16T05:04:10.798Z,60.75
2019-05-16T05:05:06.675Z,61.80
2019-05-16T05:06:04.783Z,61.80
2019-05-16T05:07:05.510Z,62.75
2019-05-16T05:08:05.169Z,62.45
2019-05-16T05:09:05.371Z,62.55
2019-05-16T05:10:05.526Z,62.55
2019-05-16T05:11:06.515Z,62.75
2019-05-16T05:12:05.876Z,62.65
2019-05-16T05:13:06.030Z,63.06
2019-05-16T05:14:06.192Z,62.04
2019-05-16T05:15:06.322Z,62.34
2019-05-16T05:16:06.490Z,62.01
2019-05-16T05:17:06.628Z,62.21
2019-05-16T05:18:06.785Z,62.83
2019-05-16T05:19:06.982Z,62.34
2019-05-16T05:20:07.109Z,63.54
2019-05-16T05:21:07.266Z,63.06
2019-05-16T05:22:07.397Z,62.41
2019-05-16T05:23:09.752Z,62.11
2019-05-16T05:24:07.747Z,61.00
2019-05-16T05:25:07.935Z,61.35
2019-05-16T05:26:10.758Z,62.48
2019-05-16T05:27:10.378Z,59.98
2019-05-16T05:28:09.979Z,61.04
2019-05-16T05:29:10.518Z,61.44
2019-05-16T05:30:10.566Z,60.42
2019-05-16T05:31:10.784Z,60.42
2019-05-16T05:32:14.482Z,59.88
2019-05-16T05:33:10.327Z,59.88
2019-05-16T05:34:10.652Z,58.44
2019-05-16T05:35:10.948Z,59.06
2019-05-16T05:36:12.454Z,58.23
2019-05-16T05:37:12.521Z,58.47
2019-05-16T05:38:11.221Z,58.47
2019-05-16T05:39:15.230Z,57.95
2019-05-16T05:40:12.651Z,58.67
2019-05-16T05:41:10.914Z,58.06
2019-05-16T05:42:11.069Z,58.16
2019-05-16T05:43:11.205Z,57.82
2019-05-16T05:44:11.334Z,57.95
2019-05-16T05:45:12.546Z,57.95
2019-05-16T05:46:11.774Z,58.36
2019-05-16T05:47:11.918Z,58.36
2019-05-16T05:48:12.073Z,58.36
2019-05-16T05:49:12.218Z,57.72
2019-05-16T05:50:13.041Z,57.75
2019-05-16T05:51:12.557Z,57.41
2019-05-16T05:52:12.890Z,57.82
2019-05-16T05:53:12.962Z,57.82
2019-05-16T05:54:13.111Z,57.10
2019-05-16T05:55:13.304Z,57.62
2019-05-16T05:56:13.481Z,57.44
2019-05-16T05:57:13.643Z,58.23
2019-05-16T05:58:13.796Z,57.51
2019-05-16T05:59:13.943Z,57.62
2019-05-16T06:00:14.091Z,58.13
2019-05-16T06:01:14.234Z,57.41
2019-05-16T06:02:14.458Z,57.41
2019-05-16T06:03:14.655Z,57.51
2019-05-16T06:04:14.809Z,57.31
2019-05-16T06:05:15.001Z,57.51
2019-05-16T06:06:15.170Z,57.41
2019-05-16T06:07:15.367Z,57.00
2019-05-16T06:08:15.533Z,57.72
2019-05-16T06:09:26.212Z,57.08
2019-05-16T06:10:19.903Z,57.31
2019-05-16T06:11:16.091Z,57.00
2019-05-16T06:12:16.255Z,57.93
2019-05-16T06:13:16.418Z,57.00
2019-05-16T06:14:16.566Z,56.98
2019-05-16T06:15:16.715Z,57.70
2019-05-16T06:16:16.873Z,57.41
2019-05-16T06:17:17.047Z,57.62
2019-05-16T06:18:19.657Z,57.41
2019-05-16T06:19:17.326Z,58.34
2019-05-16T06:20:17.490Z,57.51
2019-05-16T06:21:20.352Z,57.41
2019-05-16T06:22:20.529Z,57.82
2019-05-16T06:23:20.733Z,57.39
2019-05-16T06:24:20.165Z,57.72
2019-05-16T06:25:22.753Z,56.90
2019-05-16T06:26:20.407Z,57.72
2019-05-16T06:27:20.919Z,57.79
2019-05-16T06:28:21.007Z,57.39
2019-05-16T06:29:20.473Z,57.79
2019-05-16T06:30:21.410Z,57.28
2019-05-16T06:31:22.178Z,57.15
2019-05-16T06:32:21.038Z,56.23
2019-05-16T06:33:20.209Z,56.54
2019-05-16T06:34:21.166Z,55.92
2019-05-16T06:35:23.682Z,56.23
2019-05-16T06:36:20.598Z,56.54
2019-05-16T06:37:21.525Z,56.54
2019-05-16T06:38:21.780Z,57.13
2019-05-16T06:39:20.887Z,55.77
2019-05-16T06:40:21.046Z,55.26
2019-05-16T06:41:21.188Z,55.79
2019-05-16T06:42:21.374Z,57.00
2019-05-16T06:43:21.534Z,55.05
2019-05-16T06:44:21.789Z,55.36
2019-05-16T06:45:21.926Z,55.05
2019-05-16T06:46:22.100Z,54.72
2019-05-16T06:47:23.081Z,55.02
2019-05-16T06:48:23.391Z,54.57
2019-05-16T06:49:22.511Z,52.87
2019-05-16T06:50:22.664Z,51.93
2019-05-16T06:51:22.833Z,51.93
2019-05-16T06:52:23.004Z,51.21
2019-05-16T06:53:23.197Z,51.91
2019-05-16T06:54:23.363Z,50.86
2019-05-16T06:55:23.523Z,50.76
2019-05-16T06:56:23.655Z,50.53
2019-05-16T06:57:23.861Z,49.59
2019-05-16T06:58:24.044Z,50.59
2019-05-16T06:59:24.181Z,50.23
2019-05-16T07:00:24.339Z,50.86
2019-05-16T07:01:24.491Z,51.93
2019-05-16T07:02:30.430Z,52.06
2019-05-16T07:03:26.757Z,54.00
2019-05-16T07:04:25.527Z,54.03
2019-05-16T07:05:25.187Z,53.39
2019-05-16T07:06:47.629Z,52.24
2019-05-16T07:07:27.508Z,52.03
2019-05-16T07:08:25.757Z,52.24
2019-05-16T07:09:25.924Z,52.95
2019-05-16T07:10:26.067Z,53.16
2019-05-16T07:11:26.238Z,52.32
2019-05-16T07:12:26.412Z,51.98
2019-05-16T07:13:26.554Z,51.96
2019-05-16T07:14:28.999Z,51.35
2019-05-16T07:15:29.758Z,51.68
2019-05-16T07:16:27.050Z,51.45
2019-05-16T07:17:27.532Z,50.41
2019-05-16T07:18:27.434Z,50.79
2019-05-16T07:19:30.124Z,50.56
2019-05-16T07:20:30.050Z,48.02
2019-05-16T07:21:27.946Z,49.65
2019-05-16T07:22:31.031Z,49.54
2019-05-16T07:23:29.918Z,49.16
2019-05-16T07:24:30.558Z,50.51
2019-05-16T07:25:30.146Z,50.48
2019-05-16T07:26:31.060Z,50.46
2019-05-16T07:27:30.933Z,50.87
2019-05-16T07:28:30.294Z,48.40
2019-05-16T07:29:30.832Z,48.79
2019-05-16T07:30:30.503Z,48.81
2019-05-16T07:31:30.132Z,48.32
2019-05-16T07:32:30.819Z,49.46
2019-05-16T07:33:31.214Z,50.08
2019-05-16T07:34:31.359Z,50.10
2019-05-16T07:35:31.376Z,50.33
2019-05-16T07:36:31.499Z,50.63
2019-05-16T07:37:31.695Z,50.86
2019-05-16T07:38:31.183Z,52.27
2019-05-16T07:39:32.144Z,51.15
2019-05-16T07:40:31.268Z,50.86
2019-05-16T07:41:31.437Z,50.56
2019-05-16T07:42:31.618Z,52.93
2019-05-16T07:43:31.817Z,53.85
2019-05-16T07:44:33.037Z,53.75
2019-05-16T07:45:32.185Z,52.01
2019-05-16T07:46:32.416Z,53.16
2019-05-16T07:47:32.628Z,53.57
2019-05-16T07:48:32.723Z,52.24
2019-05-16T07:49:32.935Z,52.95
2019-05-16T07:50:33.122Z,53.47
2019-05-16T07:51:33.331Z,52.01
2019-05-16T07:52:36.414Z,52.01
2019-05-16T07:53:34.663Z,52.19
2019-05-16T07:54:34.538Z,51.68
2019-05-16T07:55:34.987Z,51.91
2019-05-16T07:56:34.153Z,51.70
2019-05-16T07:57:34.309Z,52.29
2019-05-16T07:58:34.464Z,51.35
2019-05-16T07:59:34.635Z,50.02
2019-05-16T08:00:49.858Z,50.76
2019-05-16T08:01:36.952Z,50.56
2019-05-16T08:02:35.076Z,51.40
2019-05-16T08:03:35.264Z,52.87
2019-05-16T08:04:35.426Z,52.98
2019-05-16T08:05:35.681Z,54.10
2019-05-16T08:06:35.706Z,53.59
2019-05-16T08:07:35.879Z,53.67
2019-05-16T08:08:36.000Z,53.67
2019-05-16T08:09:36.178Z,53.23
2019-05-16T08:10:41.738Z,52.01
2019-05-16T08:11:37.434Z,51.89
2019-05-16T08:12:36.583Z,52.39
2019-05-16T08:13:36.733Z,51.89
2019-05-16T08:14:36.863Z,50.96
2019-05-16T08:15:37.012Z,51.70
2019-05-16T08:16:37.161Z,51.42
2019-05-16T08:17:37.352Z,52.42
2019-05-16T08:18:37.551Z,51.60
2019-05-16T08:19:39.981Z,52.01
2019-05-16T08:20:37.955Z,51.70
2019-05-16T08:21:40.491Z,51.81
2019-05-16T08:22:41.293Z,51.73
2019-05-16T08:23:41.068Z,51.93
2019-05-16T08:24:40.208Z,53.77
2019-05-16T08:25:41.220Z,53.67
2019-05-16T08:26:42.951Z,53.26
2019-05-16T08:27:41.254Z,54.00
2019-05-16T08:28:41.297Z,53.59
2019-05-16T08:29:40.618Z,53.39
2019-05-16T08:30:41.192Z,53.59
2019-05-16T08:31:42.972Z,53.52
2019-05-16T08:32:42.174Z,54.00
2019-05-16T08:33:41.754Z,53.77
2019-05-16T08:34:41.428Z,54.97
2019-05-16T08:35:41.285Z,54.77
2019-05-16T08:36:41.814Z,54.25
2019-05-16T08:37:46.041Z,55.08
2019-05-16T08:38:43.494Z,54.44
2019-05-16T08:39:42.276Z,54.74
2019-05-16T08:41:43.540Z,54.49
2019-05-16T08:42:41.965Z,53.85
2019-05-16T08:43:41.880Z,53.03
2019-05-16T08:44:42.052Z,52.11
2019-05-16T08:45:43.044Z,53.72
2019-05-16T08:46:42.690Z,52.47
2019-05-16T08:47:43.750Z,52.70
2019-05-16T08:48:42.874Z,52.01
2019-05-16T08:49:43.053Z,52.42
2019-05-16T08:50:50.195Z,53.06
2019-05-16T08:51:44.421Z,53.26
2019-05-16T08:52:44.140Z,53.36
2019-05-16T08:53:43.815Z,53.67
2019-05-16T08:54:44.222Z,53.77
2019-05-16T08:55:44.251Z,53.88
2019-05-16T08:56:44.705Z,53.64
2019-05-16T08:57:45.637Z,54.05
2019-05-16T08:58:44.770Z,53.54
2019-05-16T08:59:44.964Z,53.52
2019-05-16T09:00:45.106Z,52.98
2019-05-16T09:01:52.403Z,51.81
2019-05-16T09:02:47.507Z,52.32
2019-05-16T09:03:45.605Z,52.32
2019-05-16T09:04:45.787Z,52.62
2019-05-16T09:05:45.962Z,52.95
2019-05-16T09:06:46.187Z,53.95
2019-05-16T09:07:46.353Z,52.22
2019-05-16T09:08:46.527Z,52.72
2019-05-16T09:10:29.682Z,54.64
2019-05-16T09:10:35.823Z,52.11
2019-05-16T09:10:59.941Z,52.75
2019-05-16T09:11:49.152Z,54.00
2019-05-16T09:12:48.299Z,53.88
2019-05-16T09:13:47.862Z,53.13
2019-05-16T09:14:48.676Z,53.75
2019-05-16T09:15:48.178Z,52.11
2019-05-16T09:16:49.018Z,51.78
2019-05-16T09:17:48.177Z,51.55
2019-05-16T09:18:51.113Z,50.18
2019-05-16T09:19:49.578Z,50.05
2019-05-16T09:20:57.131Z,48.40
2019-05-16T09:21:50.881Z,47.66
2019-05-16T09:22:49.033Z,48.18
2019-05-16T09:23:49.200Z,47.39
2019-05-16T09:24:49.369Z,46.45
2019-05-16T09:25:49.536Z,46.28
2019-05-16T09:26:49.735Z,46.48
2019-05-16T09:27:50.565Z,47.39
2019-05-16T09:28:50.102Z,46.17
2019-05-16T09:29:50.307Z,45.95
2019-05-16T09:30:50.503Z,46.66
2019-05-16T09:32:07.989Z,46.66
2019-05-16T09:32:52.810Z,46.21
2019-05-16T09:33:51.050Z,45.94
2019-05-16T09:34:51.221Z,43.99
2019-05-16T09:35:52.059Z,44.60
2019-05-16T09:36:51.582Z,45.54
2019-05-16T09:37:51.772Z,46.11
2019-05-16T09:38:51.926Z,46.35
2019-05-16T09:39:52.075Z,45.33
2019-05-16T09:40:52.229Z,45.97
2019-05-16T09:41:55.553Z,47.02
2019-05-16T09:42:56.777Z,47.35
2019-05-16T09:43:52.798Z,47.67
2019-05-16T09:44:53.565Z,47.66
2019-05-16T09:45:57.502Z,47.74
2019-05-16T09:46:56.983Z,46.82
2019-05-16T09:47:53.567Z,47.05
2019-05-16T09:49:13.096Z,46.31
2019-05-16T09:49:57.988Z,46.29
2019-05-16T09:50:54.097Z,46.41
2019-05-16T09:51:56.638Z,47.86
2019-05-16T09:52:56.561Z,48.92
2019-05-16T09:53:56.762Z,49.91
2019-05-16T09:54:57.706Z,47.96
2019-05-16T09:55:57.334Z,48.39
2019-05-16T09:56:57.203Z,49.12
2019-05-16T09:57:58.378Z,49.69
2019-05-16T09:58:57.413Z,49.28
2019-05-16T09:59:57.174Z,49.40
2019-05-16T10:00:57.602Z,49.81
2019-05-16T10:01:57.366Z,49.36
2019-05-16T10:02:58.001Z,47.75
2019-05-16T10:03:57.563Z,47.67
2019-05-16T10:04:58.051Z,49.65
2019-05-16T10:05:57.876Z,50.06
2019-05-16T10:06:57.571Z,51.51
2019-05-16T10:07:57.513Z,50.98
2019-05-16T10:08:58.406Z,50.26
2019-05-16T10:09:57.566Z,50.80
2019-05-16T10:10:57.746Z,50.42
2019-05-16T10:12:10.500Z,51.23
2019-05-16T10:13:00.047Z,51.76
2019-05-16T10:13:58.174Z,52.81
2019-05-16T10:14:59.793Z,52.58
2019-05-16T10:16:00.581Z,52.48
2019-05-16T10:16:58.697Z,52.35
2019-05-16T10:17:58.882Z,51.94
2019-05-16T10:18:59.042Z,51.53
2019-05-16T10:20:00.181Z,51.53
2019-05-16T10:21:00.431Z,51.20
2019-05-16T10:22:00.342Z,50.47
2019-05-16T10:23:00.745Z,50.47
2019-05-16T10:23:59.894Z,50.57
2019-05-16T10:25:00.577Z,50.26
2019-05-16T10:26:00.240Z,52.43
2019-05-16T10:27:00.427Z,50.47
2019-05-16T10:28:00.589Z,50.83
2019-05-16T10:29:00.777Z,49.91
2019-05-16T10:30:01.557Z,49.81
2019-05-16T10:31:02.106Z,50.39
2019-05-16T10:32:01.298Z,52.33
2019-05-16T10:33:01.384Z,52.04
2019-05-16T10:34:02.188Z,52.98
2019-05-16T10:35:01.680Z,53.57
2019-05-16T10:36:01.858Z,52.73
2019-05-16T10:37:02.095Z,51.92
2019-05-16T10:38:03.074Z,52.53
2019-05-16T10:39:02.452Z,51.79
2019-05-16T10:40:02.629Z,53.11
2019-05-16T10:41:02.837Z,52.10
2019-05-16T10:42:03.017Z,52.22
2019-05-16T10:43:03.179Z,53.14
2019-05-16T10:44:03.335Z,52.63
2019-05-16T10:45:03.502Z,53.44
2019-05-16T10:46:03.691Z,53.67
2019-05-16T10:47:07.381Z,54.28
2019-05-16T10:48:04.058Z,53.24
2019-05-16T10:49:04.205Z,53.04
2019-05-16T10:50:04.367Z,53.47
2019-05-16T10:51:04.525Z,54.08
2019-05-16T10:52:07.020Z,53.88
2019-05-16T10:53:23.776Z,54.46
2019-05-16T10:54:13.492Z,51.79
2019-05-16T10:55:08.247Z,53.93
2019-05-16T10:56:07.723Z,52.86
2019-05-16T10:57:08.126Z,51.51
2019-05-16T10:58:07.788Z,51.64
2019-05-16T10:59:46.633Z,51.46
2019-05-16T11:00:18.040Z,52.68
2019-05-16T11:01:22.221Z,53.24
2019-05-16T11:02:08.601Z,54.46
2019-05-16T11:03:07.754Z,54.26
2019-05-16T11:04:07.526Z,54.39
2019-05-16T11:05:25.011Z,54.92
2019-05-16T11:06:24.441Z,56.17
2019-05-16T11:07:09.460Z,56.07
2019-05-16T11:08:08.412Z,57.29
2019-05-16T11:09:08.750Z,55.74
2019-05-16T11:10:07.863Z,56.65
2019-05-16T11:11:08.038Z,55.87
2019-05-16T11:12:08.235Z,57.01
2019-05-16T11:13:08.457Z,57.32
2019-05-16T11:14:09.349Z,57.09
2019-05-16T11:15:11.492Z,56.10
2019-05-16T11:16:10.018Z,57.19
2019-05-16T11:17:13.032Z,56.78
2019-05-16T11:18:10.405Z,57.17
2019-05-16T11:19:17.285Z,56.27
2019-05-16T11:20:11.682Z,56.60
2019-05-16T11:21:09.807Z,57.34
2019-05-16T11:22:10.581Z,57.12
2019-05-16T11:23:10.229Z,57.62
2019-05-16T11:24:12.581Z,57.62
2019-05-16T11:25:24.803Z,57.50
2019-05-16T11:26:12.806Z,58.08
2019-05-16T11:27:11.047Z,56.04
2019-05-16T11:28:11.256Z,56.55
2019-05-16T11:29:12.105Z,57.57
2019-05-16T11:30:11.654Z,57.17
2019-05-16T11:31:11.845Z,57.09
2019-05-16T11:32:11.987Z,57.80
2019-05-16T11:33:12.153Z,57.80
2019-05-16T11:34:12.319Z,57.50
2019-05-16T11:35:12.477Z,58.03
2019-05-16T11:36:13.587Z,58.23
2019-05-16T11:37:12.818Z,57.96
2019-05-16T11:38:13.001Z,58.54
2019-05-16T11:39:13.180Z,58.01
2019-05-16T11:40:13.321Z,57.09
2019-05-16T11:41:13.471Z,58.01
2019-05-16T11:42:17.336Z,57.50
2019-05-16T11:43:18.298Z,58.23
2019-05-16T11:44:17.626Z,57.83
2019-05-16T11:45:16.439Z,58.44
2019-05-16T11:46:16.091Z,58.03
2019-05-16T11:47:16.493Z,58.54
2019-05-16T11:48:16.893Z,59.66
2019-05-16T11:49:16.636Z,58.11
2019-05-16T11:50:17.682Z,57.67
2019-05-16T11:51:17.460Z,56.96
2019-05-16T11:52:18.086Z,58.13
2019-05-16T11:53:17.446Z,56.90
2019-05-16T11:54:16.537Z,55.48
2019-05-16T11:55:15.681Z,56.63
2019-05-16T11:56:15.808Z,56.63
2019-05-16T11:57:17.896Z,57.42
2019-05-16T11:58:18.023Z,55.99
2019-05-16T11:59:17.419Z,56.57
2019-05-16T12:00:17.925Z,55.55
2019-05-16T12:01:17.713Z,54.92
2019-05-16T12:02:17.509Z,56.52
2019-05-16T12:03:18.589Z,56.88
2019-05-16T12:04:17.499Z,59.41
2019-05-16T12:05:18.427Z,60.55
2019-05-16T12:06:17.580Z,61.09
2019-05-16T12:07:19.299Z,61.19
2019-05-16T12:08:18.916Z,62.08
2019-05-16T12:09:18.151Z,61.44
2019-05-16T12:10:18.291Z,60.45
2019-05-16T12:11:18.470Z,59.77
2019-05-16T12:12:20.792Z,62.52
2019-05-16T12:13:27.736Z,62.96
2019-05-16T12:14:20.982Z,64.69
2019-05-16T12:15:20.162Z,65.00
2019-05-16T12:16:20.439Z,64.93
2019-05-16T12:17:19.563Z,65.03
2019-05-16T12:18:19.703Z,64.72
2019-05-16T12:19:19.857Z,63.93
2019-05-16T12:20:19.974Z,65.67
2019-05-16T12:21:20.153Z,64.89
2019-05-16T12:22:20.302Z,65.37
2019-05-16T12:23:22.752Z,65.37
2019-05-16T12:24:33.303Z,65.37
2019-05-16T12:25:22.829Z,65.57
2019-05-16T12:26:20.949Z,65.37
2019-05-16T12:27:21.105Z,64.01
2019-05-16T12:28:22.097Z,64.04
2019-05-16T12:29:21.488Z,63.93
2019-05-16T12:30:21.673Z,64.68
2019-05-16T12:31:21.833Z,66.08
2019-05-16T12:32:22.036Z,66.49
2019-05-16T12:33:22.209Z,65.88
2019-05-16T12:34:23.098Z,66.18
2019-05-16T12:35:22.492Z,66.59
2019-05-16T12:36:22.664Z,66.21
2019-05-16T12:37:22.896Z,66.01
2019-05-16T12:38:22.977Z,67.24
2019-05-16T12:39:23.147Z,68.36
2019-05-16T12:40:23.312Z,68.77
2019-05-16T12:41:23.476Z,66.75
2019-05-16T12:42:23.681Z,67.78
2019-05-16T12:43:39.904Z,68.19
2019-05-16T12:44:26.944Z,68.26
2019-05-16T12:45:27.265Z,67.51
2019-05-16T12:46:26.796Z,66.62
2019-05-16T12:47:25.603Z,65.80
2019-05-16T12:48:25.905Z,66.59
2019-05-16T12:49:25.071Z,65.60
2019-05-16T12:50:28.193Z,65.53
2019-05-16T12:51:26.462Z,66.45
2019-05-16T12:52:27.083Z,65.84
2019-05-16T12:53:31.682Z,65.97
2019-05-16T12:54:27.855Z,66.55
2019-05-16T12:55:27.591Z,66.35
2019-05-16T12:56:27.352Z,66.21
2019-05-16T12:57:31.147Z,66.11
2019-05-16T12:58:37.497Z,65.91